ADDS METAR Data INFO
IDs: Format: Raw Decoded Include TAF

Data at: 0924 UTC 13 Dec 2017

KHDE 130915Z AUTO 30009KT 10SM BKN075 04/M06 A2983 RMK AO2 T00441061
KHDE 130855Z AUTO 31010KT 10SM CLR 04/M06 A2983 RMK AO2 T00411061
KHDE 130835Z AUTO 29011G15KT 10SM CLR 05/M06 A2982 RMK AO2 T00501065
KHDE 130815Z AUTO 29010KT 10SM CLR 06/M06 A2981 RMK AO2 T00581064
KHDE 130755Z AUTO 29008KT 10SM SCT065 05/M06 A2981 RMK AO2 T00531061
KHDE 130735Z AUTO 28011KT 10SM SCT065 05/M06 A2981 RMK AO2 T00451060
KHDE 130715Z AUTO 28010KT 10SM CLR 05/M06 A2981 RMK AO2 T00521058
KHDE 130655Z AUTO 28012KT 10SM CLR 05/M06 A2982 RMK AO2 T00501056
KHDE 130635Z AUTO 27011KT 10SM CLR 06/M06 A2982 RMK AO2 T00561056
KHDE 130615Z AUTO 27011KT 10SM CLR 05/M06 A2983 RMK AO2 T00521056
KHDE 130555Z AUTO 26011KT 10SM CLR 06/M06 A2983 RMK AO2 T00581056 10078 20037 401001059
KHDE 130535Z AUTO 26012KT 10SM CLR 06/M06 A2984 RMK AO2 T00551057
KHDE 130515Z AUTO 27011KT 10SM CLR 07/M06 A2985 RMK AO2 T00661057
KHDE 130455Z AUTO 26010KT 10SM CLR 07/M05 A2985 RMK AO2 T00731055
KHDE 130435Z AUTO 25011G15KT 10SM CLR 08/M05 A2986 RMK AO2 T00771055
KHDE 130415Z AUTO 25009KT 10SM CLR 07/M06 A2987 RMK AO2 T00671057
KHDE 130355Z AUTO 24007KT 10SM CLR 06/M06 A2988 RMK AO2 T00571060
KHDE 130335Z AUTO 23006KT 10SM CLR 05/M06 A2990 RMK AO2 T00531062
KHDE 130315Z AUTO 23008KT 10SM CLR 06/M06 A2991 RMK AO2 T00611061
KHDE 130255Z AUTO 23008KT 10SM CLR 06/M06 A2992 RMK AO2 T00591061
KHDE 130235Z AUTO 22008KT 10SM CLR 06/M06 A2993 RMK AO2 T00551060
KHDE 130215Z AUTO 22008KT 10SM CLR 05/M06 A2994 RMK AO2 T00521061
KHDE 130155Z AUTO 21007KT 10SM CLR 04/M06 A2995 RMK AO2 T00411061
KHDE 130135Z AUTO 21006KT 10SM CLR 04/M06 A2996 RMK AO2 T00371060
KHDE 130115Z AUTO 21006KT 10SM CLR 04/M06 A2997 RMK AO2 T00371061
KHDE 130055Z AUTO 21005KT 10SM CLR 04/M06 A2998 RMK AO2 T00431060
KHDE 130035Z AUTO 20005KT 10SM CLR 05/M06 A2998 RMK AO2 T00451060
KHDE 130015Z AUTO 21006KT 10SM CLR 04/M06 A2999 RMK AO2 T00431058
KHDE 122355Z AUTO 21005KT 10SM CLR 05/M05 A3000 RMK AO2 T00501055 10100 20050
KHDE 122335Z AUTO 22005KT 10SM CLR 06/M05 A3001 RMK AO2 T00551054
KHDE 122315Z AUTO 22006KT 10SM CLR 07/M05 A3002 RMK AO2 T00651050
KHDE 122255Z AUTO 23005KT 10SM CLR 08/M05 A3004 RMK AO2 T00781046
KHDE 122235Z AUTO 22006KT 10SM CLR 09/M04 A3005 RMK AO2 T00891045
KHDE 122215Z AUTO 23005KT 10SM CLR 09/M04 A3005 RMK AO2 T00921043
KHDE 122155Z AUTO 24006KT 10SM CLR 10/M04 A3007 RMK AO2 T00971044
KHDE 122135Z AUTO 24006KT 10SM CLR 10/M04 A3007 RMK AO2 T01001045
KHDE 122115Z AUTO 24006KT 10SM CLR 10/M04 A3009 RMK AO2 T00961042
KHDE 122055Z AUTO 26009KT 10SM CLR 10/M04 A3009 RMK AO2 T00961044
KHDE 122035Z AUTO 24007KT 10SM CLR 10/M04 A3011 RMK AO2 T00951042
KHDE 122015Z AUTO 24007KT 10SM CLR 09/M04 A3012 RMK AO2 T00931041
KHDE 121955Z AUTO 26008KT 10SM CLR 09/M04 A3013 RMK AO2 T00901039
KHDE 121935Z AUTO 23006KT 10SM CLR 09/M04 A3015 RMK AO2 T00881038
KHDE 121915Z AUTO 25006KT 10SM CLR 08/M04 A3016 RMK AO2 T00841038
KHDE 121855Z AUTO 24006KT 10SM CLR 08/M04 A3018 RMK AO2 T00781036
KHDE 121835Z AUTO 25006KT 10SM CLR 07/M04 A3020 RMK AO2 T00721037
KHDE 121815Z AUTO 25007KT 10SM CLR 07/M03 A3021 RMK AO2 T00701034
KHDE 121755Z AUTO 24006KT 10SM CLR 06/M03 A3023 RMK AO2 T00571028 10057 21059
KHDE 121735Z AUTO 25007KT 10SM CLR 05/M02 A3024 RMK AO2 T00521023
KHDE 121715Z AUTO 25006KT 10SM CLR 04/M03 A3025 RMK AO2 T00411029
KHDE 121655Z AUTO 26007KT 10SM CLR 04/M02 A3025 RMK AO2 T00411024
KHDE 121635Z AUTO 25009KT 10SM CLR 04/M02 A3027 RMK AO2 T00361021
KHDE 121615Z AUTO 27006KT 10SM CLR 02/M02 A3027 RMK AO2 T00201024
KHDE 121555Z AUTO 27006KT 10SM CLR 00/M03 A3029 RMK AO2 T00001034
KHDE 121535Z AUTO 27007KT 10SM CLR M01/M04 A3029 RMK AO2 T10141044
KHDE 121515Z AUTO 27007KT 10SM CLR M03/M05 A3030 RMK AO2 T10261050
KHDE 121455Z AUTO 25006KT 10SM CLR M03/M05 A3030 RMK AO2 T10291046
KHDE 121435Z AUTO 27004KT 10SM CLR M04/M05 A3030 RMK AO2 T10411055
KHDE 121415Z AUTO 26005KT 10SM CLR M05/M07 A3031 RMK AO2 T10541068
KHDE 121355Z AUTO 29006KT 10SM CLR M05/M06 A3031 RMK AO2 T10471060
KHDE 121335Z AUTO 28007KT 10SM CLR M05/M06 A3031 RMK AO2 T10501060
KHDE 121315Z AUTO 28007KT 10SM CLR M06/M07 A3032 RMK AO2 T10571067
KHDE 121255Z AUTO 29004KT 10SM CLR M05/M06 A3032 RMK AO2 T10551065
KHDE 121235Z AUTO 29005KT 10SM CLR M05/M06 A3033 RMK AO2 T10531065
KHDE 121215Z AUTO 29005KT 10SM CLR M05/M06 A3033 RMK AO2 T10481060
KHDE 121155Z AUTO 29005KT 10SM CLR M05/M06 A3034 RMK AO2 T10511063 10035 21054
KHDE 121135Z AUTO 29005KT 10SM CLR M04/M06 A3034 RMK AO2 T10431060
KHDE 121115Z AUTO 29006KT 10SM CLR M04/M05 A3034 RMK AO2 T10361054
KHDE 121055Z AUTO 29007KT 10SM CLR M03/M05 A3034 RMK AO2 T10331050
KHDE 121035Z AUTO 29007KT 10SM CLR M03/M05 A3035 RMK AO2 T10321050
KHDE 121015Z AUTO 29008KT 10SM CLR M03/M05 A3036 RMK AO2 T10301050
KHDE 120955Z AUTO 28006KT 10SM CLR M03/M05 A3037 RMK AO2 T10261047
KHDE 120935Z AUTO 28008KT 10SM SCT029 M02/M04 A3037 RMK AO2 T10221045
KHDE 120915Z AUTO 29006KT 10SM OVC029 M01/M04 A3038 RMK AO2 T10101040
KHDE 120855Z AUTO 28005KT 10SM OVC029 00/M04 A3038 RMK AO2 T10051036
KHDE 120835Z AUTO 28008KT 10SM OVC029 00/M03 A3038 RMK AO2 T00001033
KHDE 120815Z AUTO 28007KT 10SM OVC029 00/M03 A3038 RMK AO2 T00001032
KHDE 120755Z AUTO 26010KT 10SM OVC029 01/M03 A3037 RMK AO2 T00081029
KHDE 120735Z AUTO 34007KT 10SM OVC029 03/M01 A3038 RMK AO2 T00311015
KHDE 120715Z AUTO 34007KT 10SM OVC029 03/M01 A3038 RMK AO2 T00311015
KHDE 120655Z AUTO 35008KT 10SM OVC029 03/M02 A3037 RMK AO2 T00311016
KHDE 120635Z AUTO 35010G15KT 10SM OVC031 03/M01 A3037 RMK AO2 T00331015
KHDE 120615Z AUTO 36010G18KT 10SM OVC031 03/M01 A3037 RMK AO2 T00331013
KHDE 120555Z AUTO 35010G14KT 10SM OVC031 03/M01 A3037 RMK AO2 T00301007 10054 20017 401150010
KHDE 120535Z AUTO 33006KT 10SM OVC031 02/M01 A3037 RMK AO2 T00211007
KHDE 120515Z AUTO 32004KT 10SM OVC033 02/M01 A3037 RMK AO2 T00171010
KHDE 120455Z AUTO 35005KT 10SM OVC033 03/M01 A3037 RMK AO2 T00251007
KHDE 120435Z AUTO 34008KT 10SM OVC033 03/00 A3037 RMK AO2 T00281005
KHDE 120415Z AUTO 34008KT 10SM OVC035 03/M01 A3037 RMK AO2 T00281007
KHDE 120355Z AUTO 34007KT 10SM OVC037 03/M01 A3037 RMK AO2 T00281007
KHDE 120335Z AUTO 34008KT 10SM SCT027 OVC037 03/M01 A3037 RMK AO2 T00281007
KHDE 120315Z AUTO 33008KT 10SM SCT029 OVC037 03/M01 A3037 RMK AO2 T00251009
KHDE 120255Z AUTO 33009KT 10SM OVC035 03/M01 A3036 RMK AO2 T00261011
KHDE 120235Z AUTO 34010G15KT 10SM BKN037 03/M01 A3035 RMK AO2 T00301013
KHDE 120215Z AUTO 35008KT 10SM BKN037 02/M02 A3035 RMK AO2 T00231020
KHDE 120155Z AUTO 35007KT 10SM SCT037 03/M02 A3034 RMK AO2 T00271017
KHDE 120135Z AUTO 35008KT 10SM OVC037 04/M01 A3034 RMK AO2 T00371015
KHDE 120115Z AUTO 36012G17KT 10SM BKN035 BKN070 04/M01 A3033 RMK AO2 T00371015
KHDE 120055Z AUTO 36010KT 10SM SCT037 SCT043 OVC070 04/M02 A3033 RMK AO2 T00401017
KHDE 120035Z AUTO 35011G17KT 10SM BKN037 BKN043 OVC070 05/M01 A3032 RMK AO2 T00461015
KHDE 120015Z AUTO 35013G20KT 10SM OVC037 05/M01 A3031 RMK AO2 T00531015
KHDE 112355Z AUTO 35014G23KT 10SM OVC037 06/M01 A3030 RMK AO2 T00551015 10113 20055
KHDE 112335Z AUTO 35015G22KT 10SM OVC039 06/M02 A3029 RMK AO2 T00551016
KHDE 112315Z AUTO 34014G22KT 10SM BKN039 OVC090 06/M02 A3028 RMK AO2 T00551017
KHDE 112255Z AUTO 34016G21KT 10SM BKN090 06/M02 A3027 RMK AO2 T00551018
KHDE 112235Z AUTO 35015G25KT 10SM CLR 06/M02 A3025 RMK AO2 T00581020
KHDE 112215Z AUTO 35017G22KT 10SM CLR 07/M02 A3024 RMK AO2 T00651020
KHDE 112155Z AUTO 35016G29KT 10SM CLR 07/M02 A3023 RMK AO2 T00691022
KHDE 112135Z AUTO 35025G33KT 10SM CLR 08/M02 A3022 RMK AO2 T00801025